Time;durP1;ratioP1;P1;durP2;ratioP2;P2;SDS_P1;SDS_P2;PMS_P1;PMS_P2;Temp;Humidity;BMP_temperature;BMP_pressure;BME280_temperature;BME280_humidity;BME280_pressure;Samples;Min_cycle;Max_cycle;Signal;HPM_P1;HPM_P2
2021/04/15 00:00:37;;;;;;;6.88;2.30;;;11.30;34.30;;;;;;6251598;28;20032;-78
2021/04/15 00:03:38;;;;;;;2.85;1.92;;;11.30;34.40;;;;;;6250316;28;20049;-78
2021/04/15 00:06:40;;;;;;;4.38;2.10;;;11.30;34.40;;;;;;6250641;28;20363;-77
2021/04/15 00:09:41;;;;;;;3.40;2.25;;;11.20;34.40;;;;;;6250665;28;20429;-78
2021/04/15 00:12:42;;;;;;;7.20;1.98;;;11.20;34.50;;;;;;6233717;28;20032;-78
2021/04/15 00:15:43;;;;;;;4.00;2.20;;;11.20;34.90;;;;;;6251624;28;20207;-77
2021/04/15 00:18:44;;;;;;;6.78;2.13;;;11.20;35.20;;;;;;6251360;28;20029;-78
2021/04/15 00:21:49;;;;;;;7.05;2.80;;;11.10;35.40;;;;;;6250380;28;20025;-79
2021/04/15 00:24:50;;;;;;;3.65;1.75;;;11.10;35.60;;;;;;6233491;28;20099;-78
2021/04/15 00:27:53;;;;;;;2.85;1.83;;;11.00;35.60;;;;;;6233751;28;20041;-78
2021/04/15 00:30:56;;;;;;;5.90;2.42;;;11.00;35.50;;;;;;6234052;28;20534;-78
2021/04/15 00:34:00;;;;;;;6.40;1.92;;;11.00;35.40;;;;;;6251519;28;20036;-79
2021/04/15 00:37:01;;;;;;;3.65;1.80;;;11.10;35.60;;;;;;6234692;28;20040;-78
2021/04/15 00:40:03;;;;;;;7.85;2.67;;;10.90;35.80;;;;;;6251545;28;20029;-77
2021/04/15 00:43:05;;;;;;;7.93;2.25;;;10.90;36.10;;;;;;6236340;28;20374;-79
2021/04/15 00:46:28;;;;;;;5.65;2.20;;;10.80;36.70;;;;;;6217608;28;20036;-79
2021/04/15 00:49:38;;;;;;;6.78;2.55;;;10.70;36.20;;;;;;6217794;28;20022;-78
2021/04/15 00:52:46;;;;;;;3.75;1.95;;;10.70;36.60;;;;;;6238248;28;20026;-77
2021/04/15 00:55:48;;;;;;;;;;;10.60;36.50;;;;;;6221605;28;20125;-77
2021/04/15 00:58:50;;;;;;;2.67;1.52;;;10.60;36.60;;;;;;6237874;28;19920;-76
2021/04/15 01:01:52;;;;;;;2.42;1.73;;;10.60;36.70;;;;;;6254105;28;20041;-77
2021/04/15 01:04:57;;;;;;;4.65;1.73;;;10.60;37.00;;;;;;6237568;28;20095;-78
2021/04/15 01:07:58;;;;;;;4.38;2.30;;;10.50;37.00;;;;;;6237776;28;20029;-78
2021/04/15 01:11:34;;;;;;;4.20;2.00;;;10.50;37.20;;;;;;6237666;28;20395;-77
2021/04/15 01:14:52;;;;;;;2.58;1.77;;;10.50;37.40;;;;;;6252466;28;20097;-77
2021/04/15 01:18:10;;;;;;;10.13;2.17;;;10.50;37.40;;;;;;6237555;28;20037;-77
2021/04/15 01:21:54;;;;;;;3.67;1.88;;;10.50;37.30;;;;;;6253626;28;20371;-77
2021/04/15 01:25:05;;;;;;;3.92;2.08;;;10.50;37.10;;;;;;6229280;28;20037;-79
2021/04/15 01:28:20;;;;;;;6.57;2.17;;;10.50;36.80;;;;;;6261955;28;20517;-77
2021/04/15 01:31:44;;;;;;;5.70;2.42;;;10.50;36.70;;;;;;6245230;28;20071;-76
2021/04/15 01:34:57;;;;;;;2.35;1.52;;;10.60;36.90;;;;;;6262085;28;20118;-77
2021/04/15 01:38:10;;;;;;;3.92;1.67;;;10.60;37.70;;;;;;6261809;28;20444;-78
2021/04/15 01:41:33;;;;;;;3.15;1.77;;;10.60;38.00;;;;;;6261254;28;20090;-77
2021/04/15 01:44:46;;;;;;;3.33;1.80;;;10.50;38.30;;;;;;6278926;28;20123;-77
2021/04/15 01:48:00;;;;;;;4.80;2.03;;;10.40;38.30;;;;;;6261244;28;20089;-78
2021/04/15 01:51:25;;;;;;;4.72;1.85;;;10.30;38.30;;;;;;6261108;28;20036;-77
2021/04/15 01:54:39;;;;;;;3.03;1.77;;;10.30;38.20;;;;;;6276839;28;20028;-77
2021/04/15 01:57:49;;;;;;;5.57;1.90;;;10.30;38.10;;;;;;6236232;28;20044;-77
2021/04/15 02:00:58;;;;;;;5.88;1.75;;;10.30;38.30;;;;;;6236209;28;20064;-77
2021/04/15 02:04:04;;;;;;;2.92;1.60;;;10.20;39.00;;;;;;6236545;28;20102;-77
2021/04/15 02:07:14;;;;;;;7.68;1.83;;;10.20;39.30;;;;;;6236313;28;20109;-78
2021/04/15 02:10:17;;;;;;;6.43;2.10;;;10.10;39.50;;;;;;6236036;28;20021;-77
2021/04/15 02:13:20;;;;;;;3.75;1.45;;;10.00;39.50;;;;;;6253622;28;20029;-77
2021/04/15 02:16:26;;;;;;;5.75;2.00;;;9.90;39.60;;;;;;6252801;28;20036;-77
2021/04/15 02:19:33;;;;;;;3.55;1.80;;;9.90;39.60;;;;;;6253441;28;20413;-77
2021/04/15 02:22:57;;;;;;;6.50;1.77;;;9.90;39.70;;;;;;6235960;28;20128;-77
2021/04/15 02:26:08;;;;;;;5.07;2.25;;;9.90;39.80;;;;;;6252271;28;20370;-77
2021/04/15 02:29:21;;;;;;;9.00;1.70;;;9.80;40.40;;;;;;6237234;28;20025;-77
2021/04/15 02:32:38;;;;;;;3.67;1.92;;;9.70;40.60;;;;;;6237403;28;20092;-77
2021/04/15 02:35:43;;;;;;;4.03;1.90;;;9.60;40.50;;;;;;6237413;28;20083;-77
2021/04/15 02:38:47;;;;;;;3.35;2.08;;;9.60;40.50;;;;;;6237759;28;20029;-77
2021/04/15 02:41:50;;;;;;;4.18;1.73;;;9.50;40.40;;;;;;6238369;28;20021;-78
2021/04/15 02:44:59;;;;;;;7.45;1.80;;;9.40;40.50;;;;;;6235958;28;20033;-77
2021/04/15 02:48:36;;;;;;;1.90;1.45;;;9.40;40.50;;;;;;6254012;28;20443;-79
2021/04/15 02:51:54;;;;;;;3.92;1.83;;;9.40;40.50;;;;;;6139184;29;20035;-77
2021/04/15 02:54:58;;;;;;;3.80;1.85;;;9.40;40.70;;;;;;6154493;29;20039;-78
2021/04/15 02:58:08;;;;;;;3.10;1.70;;;9.40;40.60;;;;;;6137635;29;20046;-76
2021/04/15 03:01:13;;;;;;;3.83;1.95;;;9.40;40.40;;;;;;6137145;29;20047;-77
2021/04/15 03:04:21;;;;;;;5.60;1.75;;;9.40;40.30;;;;;;6137423;29;20460;-77
2021/04/15 03:07:25;;;;;;;4.13;2.17;;;9.40;40.40;;;;;;6137541;29;20043;-77
2021/04/15 03:10:36;;;;;;;3.25;1.75;;;9.40;40.60;;;;;;6121578;29;20068;-77
2021/04/15 03:13:45;;;;;;;2.88;1.70;;;9.50;40.70;;;;;;6121132;28;20046;-77
2021/04/15 03:16:49;;;;;;;6.35;1.73;;;9.50;40.90;;;;;;6137255;29;20486;-77
2021/04/15 03:19:57;;;;;;;3.95;2.13;;;9.50;40.80;;;;;;6137134;29;20151;-77
2021/04/15 03:23:13;;;;;;;8.73;2.15;;;9.50;41.00;;;;;;6137336;29;20165;-77
2021/04/15 03:26:32;;;;;;;4.30;1.70;;;9.50;41.00;;;;;;6158273;28;20132;-77
2021/04/15 03:29:47;;;;;;;3.55;1.92;;;9.50;41.90;;;;;;6210013;28;20030;-77
2021/04/15 03:32:53;;;;;;;2.92;1.63;;;9.40;41.90;;;;;;6210000;28;20057;-78
2021/04/15 03:36:06;;;;;;;5.63;1.58;;;9.40;41.90;;;;;;6209959;28;20037;-78
2021/04/15 03:39:18;;;;;;;2.67;1.70;;;9.40;42.00;;;;;;6209904;28;20091;-77
2021/04/15 03:42:33;;;;;;;3.38;1.92;;;9.40;42.20;;;;;;6226783;28;20054;-77
2021/04/15 03:45:47;;;;;;;5.78;1.70;;;9.40;42.40;;;;;;6210317;28;20030;-77
2021/04/15 03:48:53;;;;;;;6.00;2.15;;;9.40;42.70;;;;;;6208698;28;20026;-76
2021/04/15 03:52:05;;;;;;;4.20;2.45;;;9.40;43.20;;;;;;6209648;28;20038;-76
2021/04/15 03:55:23;;;;;;;6.95;2.45;;;9.30;43.20;;;;;;6234461;28;20029;-76
2021/04/15 03:58:38;;;;;;;4.38;2.38;;;9.30;43.10;;;;;;6250216;28;20128;-76
2021/04/15 04:01:52;;;;;;;3.63;1.95;;;9.30;43.00;;;;;;6252014;28;20060;-76
2021/04/15 04:05:04;;;;;;;4.53;1.90;;;9.20;43.20;;;;;;6234840;28;20038;-76
2021/04/15 04:08:12;;;;;;;3.58;1.83;;;9.20;43.40;;;;;;6251307;28;20037;-76
2021/04/15 04:11:16;;;;;;;4.82;2.15;;;9.20;43.40;;;;;;6251272;28;20056;-77
2021/04/15 04:14:19;;;;;;;4.45;2.25;;;9.20;43.50;;;;;;6251499;28;20470;-77
2021/04/15 04:17:45;;;;;;;2.97;1.73;;;9.20;43.90;;;;;;6249586;28;20041;-79
2021/04/15 04:20:47;;;;;;;8.15;2.63;;;9.20;43.90;;;;;;6233583;28;20049;-76
2021/04/15 04:24:09;;;;;;;10.93;3.17;;;9.20;44.10;;;;;;6233389;28;20037;-76
2021/04/15 04:27:29;;;;;;;3.42;2.33;;;9.20;44.20;;;;;;6238656;28;20063;-77
2021/04/15 04:30:38;;;;;;;8.32;3.53;;;9.20;44.20;;;;;;6255489;28;20083;-77
2021/04/15 04:33:47;;;;;;;5.05;2.42;;;9.10;44.40;;;;;;6255906;28;20451;-77
2021/04/15 04:36:49;;;;;;;;;;;9.10;44.60;;;;;;6222701;28;20037;-77
2021/04/15 04:39:50;;;;;;;6.57;3.05;;;9.10;44.70;;;;;;6255828;28;19916;-77
2021/04/15 04:42:53;;;;;;;5.88;2.92;;;9.00;44.70;;;;;;6222167;28;20025;-78
2021/04/15 04:46:04;;;;;;;4.65;2.72;;;9.00;45.00;;;;;;6241198;28;20033;-76
2021/04/15 04:49:11;;;;;;;14.30;3.00;;;8.90;45.10;;;;;;6255829;28;20037;-77
2021/04/15 04:52:22;;;;;;;6.38;2.72;;;8.80;45.00;;;;;;6255578;28;20112;-77
2021/04/15 04:55:30;;;;;;;4.28;2.63;;;8.80;45.00;;;;;;6237809;28;20366;-77
2021/04/15 04:58:31;;;;;;;4.88;2.50;;;8.70;45.00;;;;;;6237518;28;20409;-77
2021/04/15 05:01:32;;;;;;;5.55;2.70;;;8.60;45.00;;;;;;6234450;28;20050;-77
2021/04/15 05:04:35;;;;;;;5.32;2.90;;;8.60;45.20;;;;;;6230287;28;20037;-77
2021/04/15 05:07:37;;;;;;;7.65;2.90;;;8.50;45.00;;;;;;6213156;28;20034;-77
2021/04/15 05:10:38;;;;;;;12.27;2.70;;;8.50;45.20;;;;;;6229831;28;20164;-77
2021/04/15 05:13:40;;;;;;;7.70;2.60;;;8.50;45.40;;;;;;6229174;28;20030;-77
2021/04/15 05:16:48;;;;;;;12.77;3.17;;;8.50;45.30;;;;;;6197348;28;20038;-78
2021/04/15 05:19:49;;;;;;;9.20;3.17;;;8.50;45.70;;;;;;6213533;28;20044;-77
2021/04/15 05:23:15;;;;;;;8.20;3.10;;;8.50;45.60;;;;;;6213404;28;20284;-77
2021/04/15 05:26:25;;;;;;;7.40;3.45;;;8.50;45.60;;;;;;6229402;28;20053;-77
2021/04/15 05:29:33;;;;;;;11.68;4.00;;;8.50;45.40;;;;;;6254010;28;20022;-77
2021/04/15 05:32:37;;;;;;;10.88;3.95;;;8.60;45.50;;;;;;6235760;28;20153;-78
2021/04/15 05:35:50;;;;;;;9.13;3.50;;;8.60;45.60;;;;;;6220075;28;20041;-77
2021/04/15 05:38:56;;;;;;;8.25;3.78;;;8.60;45.60;;;;;;6220513;28;20095;-77
2021/04/15 05:42:25;;;;;;;11.00;4.63;;;8.60;45.70;;;;;;6236571;28;20033;-77
2021/04/15 05:45:28;;;;;;;9.77;4.13;;;8.60;45.90;;;;;;6236752;28;20084;-77
2021/04/15 05:48:31;;;;;;;6.18;3.10;;;8.60;46.00;;;;;;6236489;28;20059;-77
2021/04/15 05:51:50;;;;;;;4.28;2.58;;;8.60;45.90;;;;;;6236548;28;20025;-76
2021/04/15 05:54:53;;;;;;;6.03;3.20;;;8.60;46.10;;;;;;6219667;28;20064;-77
2021/04/15 05:58:04;;;;;;;5.07;2.70;;;8.60;46.30;;;;;;6211777;28;20025;-77
2021/04/15 06:01:14;;;;;;;4.82;2.75;;;8.60;46.50;;;;;;6215737;28;20096;-77
2021/04/15 06:04:42;;;;;;;9.48;2.85;;;8.60;46.80;;;;;;6222301;28;20068;-77
2021/04/15 06:07:44;;;;;;;6.75;2.38;;;8.60;46.70;;;;;;6241659;28;20072;-77
2021/04/15 06:10:45;;;;;;;5.10;2.47;;;8.60;46.60;;;;;;6224445;28;20080;-78
2021/04/15 06:13:51;;;;;;;8.15;2.97;;;8.60;46.40;;;;;;6241700;28;20037;-78
2021/04/15 06:17:15;;;;;;;3.65;2.22;;;8.60;46.40;;;;;;6215336;28;20502;-78
2021/04/15 06:20:36;;;;;;;3.05;2.08;;;8.60;46.30;;;;;;6210783;28;20041;-77
2021/04/15 06:23:51;;;;;;;6.00;2.10;;;8.60;46.20;;;;;;6254010;28;20025;-78
2021/04/15 06:26:54;;;;;;;3.55;2.25;;;8.60;46.10;;;;;;6254533;28;20355;-78
2021/04/15 06:29:58;;;;;;;5.30;2.47;;;8.70;46.00;;;;;;6235045;28;20026;-78
2021/04/15 06:33:06;;;;;;;6.03;2.92;;;8.80;46.00;;;;;;6232232;28;20032;-79
2021/04/15 06:36:33;;;;;;;4.93;3.38;;;8.80;45.80;;;;;;6222485;28;20378;-79
2021/04/15 06:39:38;;;;;;;9.60;2.95;;;9.00;45.60;;;;;;6189911;28;20034;-79
2021/04/15 06:42:42;;;;;;;4.60;2.80;;;9.10;45.20;;;;;;6210392;28;20022;-78
2021/04/15 06:45:58;;;;;;;4.20;2.60;;;9.20;44.90;;;;;;6194429;28;20092;-78
2021/04/15 06:49:05;;;;;;;4.47;3.25;;;9.30;44.70;;;;;;6210022;28;20033;-79
2021/04/15 06:52:22;;;;;;;4.57;2.38;;;9.40;44.50;;;;;;6228449;28;20018;-78
2021/04/15 06:55:39;;;;;;;7.63;3.70;;;9.50;44.30;;;;;;6226899;28;20168;-77
2021/04/15 06:58:59;;;;;;;7.45;3.53;;;9.60;44.20;;;;;;6218069;28;20041;-78
2021/04/15 07:03:03;;;;;;;5.60;3.17;;;9.60;44.00;;;;;;6234755;28;20060;-79
2021/04/15 07:06:30;;;;;;;7.88;4.28;;;9.70;44.00;;;;;;6178371;28;20078;-82
2021/04/15 07:10:04;;;;;;;4.60;2.78;;;9.80;43.80;;;;;;6139226;28;20118;-78
2021/04/15 07:13:32;;;;;;;5.47;2.60;;;9.90;43.60;;;;;;6177058;28;20453;-81
2021/04/15 07:17:20;;;;;;;8.20;3.20;;;10.00;43.40;;;;;;6179287;28;20054;-78
2021/04/15 07:20:46;;;;;;;6.45;3.08;;;10.10;43.30;;;;;;6177747;28;20069;-79
2021/04/15 07:24:19;;;;;;;5.57;2.80;;;10.10;43.00;;;;;;6162584;28;20046;-79
2021/04/15 07:27:41;;;;;;;7.63;2.85;;;10.20;42.90;;;;;;6146173;28;20027;-80
2021/04/15 07:31:10;;;;;;;9.70;3.15;;;10.30;42.70;;;;;;6164699;28;20034;-79
2021/04/15 07:34:34;;;;;;;13.70;3.72;;;10.40;42.30;;;;;;6180546;28;20624;-79
2021/04/15 07:38:12;;;;;;;5.97;3.00;;;10.50;42.10;;;;;;6238330;28;20041;-80
2021/04/15 07:41:40;;;;;;;3.63;2.67;;;10.70;41.90;;;;;;6236770;28;20083;-80
2021/04/15 07:45:13;;;;;;;7.75;3.75;;;10.90;41.70;;;;;;6238724;28;20041;-80
2021/04/15 07:48:32;;;;;;;4.05;2.55;;;11.00;41.30;;;;;;6162631;28;20058;-81
2021/04/15 07:52:10;;;;;;;6.05;2.85;;;11.20;41.00;;;;;;6160810;28;20039;-80
2021/04/15 07:55:35;;;;;;;6.82;3.25;;;11.30;40.40;;;;;;6144815;28;20034;-81
2021/04/15 07:59:03;;;;;;;9.90;3.10;;;11.40;40.00;;;;;;6176654;28;20042;-79
2021/04/15 08:02:20;;;;;;;9.82;3.10;;;11.40;39.60;;;;;;6176278;28;20050;-80
2021/04/15 08:05:53;;;;;;;5.88;3.20;;;11.50;39.50;;;;;;6159679;28;20109;-80
2021/04/15 08:09:08;;;;;;;6.63;3.00;;;11.50;39.40;;;;;;6176533;28;20026;-79
2021/04/15 08:12:33;;;;;;;8.18;3.00;;;11.70;39.30;;;;;;6160257;28;20350;-79
2021/04/15 08:16:03;;;;;;;21.45;4.22;;;11.80;38.90;;;;;;6160065;28;20038;-79
2021/04/15 08:19:12;;;;;;;;;;;11.90;38.80;;;;;;6144348;28;20047;-78
2021/04/15 08:22:50;;;;;;;4.80;3.15;;;12.00;38.60;;;;;;6144507;28;19910;-78
2021/04/15 08:26:13;;;;;;;4.88;2.90;;;12.20;38.10;;;;;;6220317;28;20046;-78
2021/04/15 08:29:20;;;;;;;4.57;3.00;;;12.40;37.70;;;;;;6233230;28;20063;-79
2021/04/15 08:32:35;;;;;;;5.97;2.83;;;12.50;37.50;;;;;;6251274;28;20032;-80
2021/04/15 08:35:54;;;;;;;6.28;3.00;;;12.60;37.10;;;;;;6251333;28;20410;-83
2021/04/15 08:39:01;;;;;;;6.82;3.08;;;12.70;36.80;;;;;;6233216;28;20026;-81
2021/04/15 08:42:44;;;;;;;4.38;2.70;;;12.80;36.50;;;;;;6233181;28;20366;-81
2021/04/15 08:45:54;;;;;;;10.82;4.35;;;12.90;36.30;;;;;;6143568;28;20047;-80
2021/04/15 08:49:16;;;;;;;7.85;2.95;;;13.00;35.90;;;;;;6147230;28;20340;-81
2021/04/15 08:52:40;;;;;;;3.67;2.90;;;13.10;36.10;;;;;;6163301;28;20027;-81
2021/04/15 08:55:56;;;;;;;5.90;3.53;;;13.30;36.00;;;;;;6157540;28;20039;-82
2021/04/15 08:59:21;;;;;;;5.57;3.58;;;13.50;35.60;;;;;;6176778;28;20035;-81
2021/04/15 09:02:44;;;;;;;7.50;4.15;;;13.60;35.30;;;;;;6159638;28;20132;-79
2021/04/15 09:06:13;;;;;;;7.65;3.95;;;13.70;35.00;;;;;;6159360;28;20050;-80
2021/04/15 09:09:17;;;;;;;;;;;13.60;35.00;;;;;;6176257;28;20074;-79
2021/04/15 09:12:48;;;;;;;8.00;3.97;;;13.60;35.00;;;;;;6161869;28;19910;-80
2021/04/15 09:16:25;;;;;;;7.97;3.40;;;13.70;34.80;;;;;;6147789;28;20071;-80
2021/04/15 09:19:40;;;;;;;8.88;4.10;;;13.60;34.80;;;;;;6148254;28;20031;-79
2021/04/15 09:23:07;;;;;;;7.93;3.60;;;13.60;34.80;;;;;;6212975;28;20066;-81
2021/04/15 09:26:18;;;;;;;9.77;4.43;;;13.60;34.60;;;;;;6240120;28;20034;-81
2021/04/15 09:29:36;;;;;;;5.18;3.17;;;13.70;34.40;;;;;;6254063;28;20049;-80
2021/04/15 09:33:14;;;;;;;8.32;3.30;;;13.70;34.20;;;;;;6237770;28;20029;-81
2021/04/15 09:36:38;;;;;;;7.57;3.88;;;13.80;34.00;;;;;;6253070;28;20056;-80
2021/04/15 09:39:45;;;;;;;8.13;4.18;;;13.90;33.80;;;;;;6254659;28;20045;-80
2021/04/15 09:43:10;;;;;;;11.73;3.60;;;14.00;34.00;;;;;;6237057;28;20365;-81
2021/04/15 09:46:20;;;;;;;4.47;2.85;;;14.00;34.10;;;;;;6237189;28;20030;-81
2021/04/15 09:49:44;;;;;;;6.82;3.33;;;14.00;33.90;;;;;;6235661;28;20033;-79
2021/04/15 09:53:08;;;;;;;8.60;3.80;;;14.00;33.70;;;;;;6154156;28;20031;-80
2021/04/15 09:56:27;;;;;;;9.60;3.70;;;14.10;33.90;;;;;;6143387;28;20035;-79
2021/04/15 10:00:06;;;;;;;5.20;3.97;;;14.20;33.80;;;;;;6155880;28;20034;-79
2021/04/15 10:03:33;;;;;;;5.22;3.63;;;14.20;33.40;;;;;;6165218;28;20054;-80
2021/04/15 10:06:48;;;;;;;10.75;4.43;;;14.30;33.50;;;;;;6154805;29;20043;-79
2021/04/15 10:10:19;;;;;;;6.53;4.07;;;14.40;33.60;;;;;;6144196;29;20585;-79
2021/04/15 10:13:52;;;;;;;9.60;4.78;;;14.40;33.70;;;;;;6138348;29;20457;-79
2021/04/15 10:17:14;;;;;;;9.55;4.22;;;14.50;33.80;;;;;;6125399;28;20035;-79
2021/04/15 10:20:33;;;;;;;6.57;4.00;;;14.60;33.70;;;;;;6185667;28;20049;-80
2021/04/15 10:23:51;;;;;;;6.10;4.15;;;14.70;33.60;;;;;;6181466;28;20043;-80
2021/04/15 10:27:16;;;;;;;8.17;4.47;;;14.70;33.50;;;;;;6168558;28;20026;-79
2021/04/15 10:30:44;;;;;;;7.32;4.35;;;14.70;33.60;;;;;;6225917;28;20146;-79
2021/04/15 10:34:13;;;;;;;6.78;4.45;;;14.80;33.80;;;;;;6247718;28;20049;-80
2021/04/15 10:37:35;;;;;;;10.10;4.47;;;14.80;33.70;;;;;;6252557;28;20064;-79
2021/04/15 10:40:55;;;;;;;9.05;4.20;;;15.00;33.60;;;;;;6235658;28;20040;-78
2021/04/15 10:44:36;;;;;;;7.20;4.40;;;15.20;33.20;;;;;;6249759;28;20466;-81
2021/04/15 10:47:54;;;;;;;6.70;4.22;;;15.40;32.90;;;;;;6215617;28;20461;-79
2021/04/15 10:51:13;;;;;;;8.93;4.70;;;15.80;32.20;;;;;;6245879;28;20021;-77
2021/04/15 10:54:32;;;;;;;7.38;4.15;;;16.40;31.20;;;;;;6259530;28;20205;-79
2021/04/15 10:57:35;;;;;;;7.53;4.63;;;16.90;30.50;;;;;;6257095;28;20091;-79
2021/04/15 11:00:36;;;;;;;7.25;4.20;;;17.40;29.90;;;;;;6235938;28;20049;-79
2021/04/15 11:03:37;;;;;;;6.47;3.80;;;17.80;29.50;;;;;;6234757;28;20382;-78
2021/04/15 11:06:57;;;;;;;6.78;4.30;;;18.10;28.60;;;;;;6234636;28;20025;-77
2021/04/15 11:10:09;;;;;;;8.43;4.82;;;18.40;28.50;;;;;;6234474;28;20025;-77
2021/04/15 11:13:14;;;;;;;7.85;3.88;;;18.60;27.90;;;;;;6234406;28;20124;-76
2021/04/15 11:16:23;;;;;;;7.47;3.95;;;18.80;27.70;;;;;;6234239;28;20059;-80
2021/04/15 11:19:30;;;;;;;8.40;4.15;;;18.80;26.80;;;;;;6234216;28;20026;-77
2021/04/15 11:22:33;;;;;;;5.30;4.03;;;18.80;26.90;;;;;;6233769;28;20032;-77
2021/04/15 11:25:44;;;;;;;7.32;4.07;;;18.70;26.70;;;;;;6233713;28;20033;-77
2021/04/15 11:28:47;;;;;;;10.38;4.22;;;18.80;26.40;;;;;;6251301;28;20059;-77
2021/04/15 11:31:48;;;;;;;5.13;3.78;;;18.80;26.50;;;;;;6234167;28;20053;-77
2021/04/15 11:35:10;;;;;;;6.22;3.70;;;18.90;26.50;;;;;;6251346;28;20033;-75
2021/04/15 11:38:21;;;;;;;8.48;4.03;;;18.90;26.50;;;;;;6233266;28;20324;-77
2021/04/15 11:41:25;;;;;;;5.18;3.53;;;18.90;26.40;;;;;;6217517;28;20029;-76
2021/04/15 11:44:34;;;;;;;6.25;4.07;;;19.00;26.60;;;;;;6251232;28;20045;-78
2021/04/15 11:47:35;;;;;;;6.18;3.78;;;19.10;26.50;;;;;;6233935;28;20041;-78
2021/04/15 11:50:37;;;;;;;9.35;3.97;;;19.30;26.40;;;;;;6233368;28;20172;-77
2021/04/15 11:53:53;;;;;;;11.70;3.92;;;19.40;26.10;;;;;;6251341;28;20021;-77
2021/04/15 11:56:54;;;;;;;6.93;3.97;;;19.60;26.10;;;;;;6232639;28;20422;-77
2021/04/15 12:00:01;;;;;;;6.65;3.90;;;19.90;25.90;;;;;;6232694;28;20045;-77
2021/04/15 12:03:06;;;;;;;5.80;3.47;;;20.10;25.40;;;;;;6249255;28;20455;-77
2021/04/15 12:06:12;;;;;;;9.35;4.00;;;20.30;25.20;;;;;;6226654;28;20367;-77
2021/04/15 12:09:17;;;;;;;9.55;4.28;;;20.60;25.00;;;;;;6228786;28;20026;-78
2021/04/15 12:12:43;;;;;;;6.15;4.20;;;20.90;24.20;;;;;;6215593;28;20037;-75
2021/04/15 12:15:51;;;;;;;6.70;3.55;;;21.00;24.20;;;;;;6135863;29;20162;-77
2021/04/15 12:19:05;;;;;;;5.60;3.90;;;21.30;23.80;;;;;;6136138;29;20062;-78
2021/04/15 12:22:14;;;;;;;8.15;4.15;;;21.50;23.60;;;;;;6150606;29;20041;-76
2021/04/15 12:25:21;;;;;;;7.78;4.28;;;21.70;23.20;;;;;;6144395;29;20451;-77
2021/04/15 12:29:21;;;;;;;6.13;3.90;;;22.00;22.90;;;;;;6133698;29;20360;-80
2021/04/15 12:32:48;;;;;;;5.88;3.92;;;22.40;22.40;;;;;;6144918;28;20043;-79
2021/04/15 12:35:56;;;;;;;8.20;3.78;;;22.70;21.90;;;;;;6150533;28;20054;-79
2021/04/15 12:39:04;;;;;;;6.97;3.78;;;23.00;21.70;;;;;;6106871;29;20046;-78
2021/04/15 12:42:05;;;;;;;5.45;3.05;;;23.50;21.10;;;;;;6129342;29;20034;-80
2021/04/15 12:45:30;;;;;;;6.47;3.90;;;24.00;20.60;;;;;;6135344;28;20047;-79
2021/04/15 12:48:44;;;;;;;7.60;3.53;;;24.30;20.10;;;;;;6155941;28;20495;-79
2021/04/15 12:51:52;;;;;;;5.95;3.60;;;24.70;19.40;;;;;;6193058;28;20071;-79
2021/04/15 12:54:54;;;;;;;6.63;3.30;;;24.90;19.30;;;;;;6261389;28;20045;-79
2021/04/15 12:57:56;;;;;;;4.72;3.47;;;25.30;18.90;;;;;;6243531;28;20114;-80
2021/04/15 13:01:00;;;;;;;5.45;3.40;;;25.60;18.70;;;;;;6236551;28;20443;-81
2021/04/15 13:04:23;;;;;;;4.57;3.40;;;26.10;18.30;;;;;;6196466;28;20418;-82
2021/04/15 13:07:26;;;;;;;7.47;4.05;;;26.50;17.70;;;;;;6213218;28;20036;-80
2021/04/15 13:10:35;;;;;;;4.68;3.70;;;26.90;17.40;;;;;;6244371;28;20104;-78
2021/04/15 13:13:38;;;;;;;;;;;27.00;17.20;;;;;;6237567;28;20454;-77
2021/04/15 13:16:47;;;;;;;4.82;3.20;;;27.60;17.10;;;;;;6252107;28;19909;-81
2021/04/15 13:19:59;;;;;;;5.18;2.83;;;28.20;16.30;;;;;;6228454;28;20026;-83
2021/04/15 13:23:34;;;;;;;5.90;3.38;;;28.20;16.00;;;;;;6229266;28;20065;-80
2021/04/15 13:26:38;;;;;;;4.57;3.42;;;28.10;15.80;;;;;;6229139;28;20459;-81
2021/04/15 13:30:17;;;;;;;6.15;3.00;;;27.90;15.80;;;;;;6230021;28;20032;-82
2021/04/15 13:33:30;;;;;;;5.10;2.95;;;27.90;15.90;;;;;;6221747;28;20463;-82
2021/04/15 13:36:31;;;;;;;9.38;3.13;;;28.00;15.80;;;;;;6239234;28;20033;-80
2021/04/15 13:39:37;;;;;;;8.70;2.70;;;28.10;15.70;;;;;;6253568;28;20037;-80
2021/04/15 13:42:39;;;;;;;4.28;2.63;;;27.90;15.40;;;;;;6254072;28;20340;-81
2021/04/15 13:45:44;;;;;;;6.88;3.05;;;27.80;15.60;;;;;;6253113;28;20033;-81
2021/04/15 13:48:50;;;;;;;4.93;2.65;;;27.90;15.40;;;;;;6251592;28;20037;-80
2021/04/15 13:52:09;;;;;;;3.63;2.55;;;28.00;15.20;;;;;;6248459;28;20030;-79
2021/04/15 13:55:32;;;;;;;6.32;3.10;;;28.20;15.00;;;;;;6254256;28;20100;-80
2021/04/15 13:58:39;;;;;;;4.70;2.97;;;28.70;15.00;;;;;;6235283;28;20029;-80
2021/04/15 14:01:43;;;;;;;3.22;2.58;;;29.40;14.50;;;;;;6252893;28;20064;-86
2021/04/15 14:04:57;;;;;;;7.13;2.70;;;29.80;14.00;;;;;;6253505;28;20422;-82
2021/04/15 14:08:24;;;;;;;8.10;3.55;;;30.00;13.70;;;;;;6253721;28;20036;-81
2021/04/15 14:11:33;;;;;;;5.53;3.20;;;29.60;14.00;;;;;;6253123;28;20036;-82
2021/04/15 14:14:42;;;;;;;5.45;2.67;;;28.60;14.20;;;;;;6252516;28;20029;-82
2021/04/15 14:17:44;;;;;;;10.90;2.75;;;27.10;15.10;;;;;;6236421;28;20030;-83
2021/04/15 14:21:10;;;;;;;4.72;2.63;;;25.70;15.80;;;;;;6237645;28;20048;-82
2021/04/15 14:24:31;;;;;;;30.85;3.53;;;24.50;16.80;;;;;;6259524;28;20044;-83
2021/04/15 14:27:35;;;;;;;8.75;2.45;;;23.60;17.60;;;;;;6236128;28;20029;-84
2021/04/15 14:30:37;;;;;;;7.93;2.58;;;23.00;18.10;;;;;;6254288;28;20036;-82
2021/04/15 14:33:40;;;;;;;7.80;2.75;;;22.40;18.60;;;;;;6220444;28;20120;-83
2021/04/15 14:36:41;;;;;;;6.32;2.85;;;21.90;19.10;;;;;;6235227;28;20029;-81
2021/04/15 14:39:48;;;;;;;14.75;3.72;;;21.50;19.50;;;;;;6223640;28;20026;-84
2021/04/15 14:42:49;;;;;;;6.55;2.97;;;21.00;19.80;;;;;;6239034;28;20064;-83
2021/04/15 14:45:50;;;;;;;3.58;2.00;;;20.70;20.10;;;;;;6222501;28;20022;-82
2021/04/15 14:48:51;;;;;;;10.38;3.10;;;20.40;20.40;;;;;;6228151;28;20032;-82
2021/04/15 14:52:16;;;;;;;4.32;2.08;;;20.00;20.70;;;;;;6222508;28;20026;-81
2021/04/15 14:55:31;;;;;;;7.22;2.75;;;19.90;20.90;;;;;;6206620;28;20120;-81
2021/04/15 14:58:32;;;;;;;3.47;2.03;;;19.70;20.90;;;;;;6224380;28;20033;-83
2021/04/15 15:01:40;;;;;;;3.78;2.42;;;19.50;20.70;;;;;;6210934;28;20450;-83
2021/04/15 15:04:42;;;;;;;6.13;2.70;;;19.30;20.80;;;;;;6221254;28;20041;-81
2021/04/15 15:07:43;;;;;;;5.95;2.10;;;19.30;21.30;;;;;;6220586;28;20116;-82
2021/04/15 15:10:44;;;;;;;6.88;2.40;;;19.30;21.00;;;;;;6234478;28;20044;-83
2021/04/15 15:13:47;;;;;;;4.20;2.28;;;19.30;21.30;;;;;;6235631;28;20034;-84
2021/04/15 15:16:48;;;;;;;5.20;2.20;;;19.30;21.30;;;;;;6213258;28;20034;-84
2021/04/15 15:19:53;;;;;;;3.67;2.65;;;19.30;21.40;;;;;;6225467;28;20521;-82
2021/04/15 15:23:29;;;;;;;7.72;2.70;;;19.30;21.60;;;;;;6232704;28;20036;-84
2021/04/15 15:26:41;;;;;;;5.95;2.00;;;19.20;21.90;;;;;;6147275;28;20125;-85
2021/04/15 15:29:55;;;;;;;7.78;2.03;;;19.10;21.80;;;;;;6149615;28;20152;-85
2021/04/15 15:33:25;;;;;;;7.10;2.58;;;19.10;21.90;;;;;;6164515;28;20027;-81
2021/04/15 15:36:28;;;;;;;9.20;2.53;;;19.10;21.90;;;;;;6137138;28;20039;-79
2021/04/15 15:39:36;;;;;;;6.75;2.05;;;19.10;22.10;;;;;;6137383;29;20028;-79
2021/04/15 15:42:54;;;;;;;6.03;2.58;;;19.10;22.10;;;;;;6139025;29;20043;-80
2021/04/15 15:46:12;;;;;;;3.08;2.00;;;19.30;22.20;;;;;;6155277;29;20031;-81
2021/04/15 15:49:19;;;;;;;3.13;1.90;;;19.30;22.00;;;;;;6155159;29;20047;-79
2021/04/15 15:52:29;;;;;;;7.60;2.63;;;19.40;21.80;;;;;;6155272;29;20281;-79
2021/04/15 15:55:37;;;;;;;3.85;2.25;;;19.40;21.60;;;;;;6153816;29;20179;-78
2021/04/15 15:58:38;;;;;;;3.65;1.85;;;19.80;21.30;;;;;;6153802;28;20031;-79
2021/04/15 16:02:11;;;;;;;4.00;2.10;;;21.00;20.00;;;;;;6153845;28;20049;-79
2021/04/15 16:05:18;;;;;;;8.50;2.47;;;22.50;18.50;;;;;;6147246;28;20058;-80
2021/04/15 16:08:22;;;;;;;4.25;2.30;;;23.90;17.40;;;;;;6177352;28;20030;-77
2021/04/15 16:11:42;;;;;;;8.23;2.60;;;25.00;16.50;;;;;;6180655;28;20034;-77
2021/04/15 16:14:44;;;;;;;3.70;2.20;;;25.60;16.00;;;;;;6162882;28;20050;-78
2021/04/15 16:17:46;;;;;;;4.97;2.38;;;25.80;16.00;;;;;;6162589;28;20053;-79
2021/04/15 16:20:59;;;;;;;10.07;2.47;;;26.00;16.20;;;;;;6156270;28;20062;-81
2021/04/15 16:24:18;;;;;;;17.95;5.70;;;25.90;16.30;;;;;;6157930;29;20400;-78
2021/04/15 16:27:21;;;;;;;5.07;2.63;;;24.50;17.30;;;;;;6139106;29;20162;-78
2021/04/15 16:30:28;;;;;;;4.40;2.13;;;23.30;18.50;;;;;;6157437;28;20078;-78
2021/04/15 16:33:30;;;;;;;3.03;2.20;;;22.00;19.80;;;;;;6157304;29;20126;-78
2021/04/15 16:36:32;;;;;;;5.60;2.78;;;20.80;20.80;;;;;;6157321;29;20050;-78
2021/04/15 16:39:36;;;;;;;4.18;2.45;;;20.00;21.90;;;;;;6140529;29;20035;-79
2021/04/15 16:42:38;;;;;;;2.35;1.73;;;19.40;22.50;;;;;;6220095;28;20482;-78
2021/04/15 16:45:39;;;;;;;7.72;2.45;;;19.10;23.30;;;;;;6221884;28;20068;-78
2021/04/15 16:48:40;;;;;;;12.65;2.05;;;18.60;23.80;;;;;;6256541;28;20034;-79